createdAt,value
2019-06-10T00:00:51.128Z,10.48
2019-06-10T00:15:51.573Z,11.00
2019-06-10T00:30:51.623Z,12.00
2019-06-10T00:45:53.398Z,11.20
2019-06-10T01:00:51.850Z,12.03
2019-06-10T01:15:51.233Z,11.25
2019-06-10T01:30:51.679Z,11.10
2019-06-10T01:45:53.756Z,11.40
2019-06-10T02:00:55.091Z,11.75
2019-06-10T02:15:51.467Z,11.25
2019-06-10T02:30:55.449Z,10.05
2019-06-10T02:45:53.051Z,10.60
2019-06-10T03:00:54.305Z,11.63
2019-06-10T03:30:55.290Z,10.70
2019-06-10T03:45:53.138Z,13.35
2019-06-10T04:00:52.247Z,12.30
2019-06-10T04:15:53.303Z,20.27
2019-06-10T04:30:53.087Z,13.93
2019-06-10T04:45:52.773Z,11.90
2019-06-10T05:00:52.381Z,11.43
2019-06-10T05:15:52.679Z,11.12
2019-06-10T05:30:53.179Z,10.70
2019-06-10T05:45:53.000Z,6.83
2019-06-10T06:00:53.271Z,7.33
2019-06-10T06:15:52.743Z,6.40
2019-06-10T06:30:52.692Z,5.20
2019-06-10T06:45:52.988Z,5.33
2019-06-10T07:01:03.712Z,5.47
2019-06-10T07:15:53.332Z,4.90
2019-06-10T07:30:54.980Z,4.70
2019-06-10T07:45:53.420Z,5.20
2019-06-10T08:00:53.141Z,5.03
2019-06-10T08:15:53.219Z,5.47
2019-06-10T08:30:53.197Z,5.70
2019-06-10T08:45:53.010Z,6.20
2019-06-10T09:00:53.508Z,5.70
2019-06-10T09:16:09.208Z,5.57
2019-06-10T09:30:59.672Z,6.60
2019-06-10T09:45:55.409Z,5.80
2019-06-10T10:00:57.764Z,6.10
2019-06-10T10:15:53.872Z,6.67
2019-06-10T10:30:52.709Z,5.90
2019-06-10T10:45:54.515Z,5.60
2019-06-10T11:00:54.490Z,6.30
2019-06-10T11:15:54.921Z,6.12
2019-06-10T11:30:55.430Z,6.47
2019-06-10T11:45:56.879Z,6.72
2019-06-10T12:00:55.859Z,6.58
2019-06-10T12:16:48.147Z,6.90
2019-06-10T12:17:17.482Z,6.75
2019-06-10T12:31:01.079Z,7.40
2019-06-10T12:45:52.968Z,7.03
2019-06-10T13:00:53.161Z,7.45
2019-06-10T13:15:53.274Z,7.05
2019-06-10T13:30:54.021Z,6.90
2019-06-10T13:45:52.963Z,8.13
2019-06-10T14:00:53.666Z,8.50
2019-06-10T14:15:53.371Z,5.92
2019-06-10T14:30:53.905Z,5.87
2019-06-10T14:45:53.468Z,5.87
2019-06-10T15:00:54.168Z,6.37
2019-06-10T15:15:53.431Z,6.35
2019-06-10T15:30:52.412Z,7.20
2019-06-10T15:45:52.563Z,7.00
2019-06-10T16:00:53.493Z,6.70
2019-06-10T16:30:54.110Z,7.80
2019-06-10T16:45:57.005Z,9.60
2019-06-10T17:00:50.604Z,8.33
2019-06-10T17:15:51.069Z,22.80
2019-06-10T17:30:52.992Z,41.65
2019-06-10T17:45:54.082Z,14.80
2019-06-10T18:00:53.038Z,9.03
2019-06-10T18:15:53.404Z,9.45
2019-06-10T18:30:53.243Z,9.83
2019-06-10T18:45:52.981Z,10.43
2019-06-10T19:01:05.276Z,11.28
2019-06-10T19:30:53.569Z,11.48
2019-06-10T19:45:52.898Z,11.50
2019-06-10T20:00:54.077Z,11.45
2019-06-10T20:15:52.493Z,10.85
2019-06-10T20:30:54.089Z,10.65
2019-06-10T20:45:51.118Z,9.05
2019-06-10T21:00:53.888Z,7.75
2019-06-10T21:15:55.095Z,7.95
2019-06-10T21:30:58.098Z,7.90
2019-06-10T21:45:56.177Z,5.90
2019-06-10T22:01:03.434Z,5.70
2019-06-10T22:15:57.156Z,4.90
2019-06-10T22:30:55.648Z,4.75
2019-06-10T22:45:55.934Z,5.05
2019-06-10T23:00:53.217Z,5.78
2019-06-10T23:15:53.471Z,5.00
2019-06-10T23:30:53.588Z,4.80
